sensor_id;sensor_type;location;lat;lon;timestamp;pressure;altitude;pressure_sealevel;temperature;humidity
77574;BME280;66710;48.868;9.080;2023-06-24T00:00:56;98879.97;;;14.50;77.91
77574;BME280;66710;48.868;9.080;2023-06-24T00:03:22;98878.31;;;14.49;77.38
77574;BME280;66710;48.868;9.080;2023-06-24T00:05:47;98880.25;;;14.64;76.53
77574;BME280;66710;48.868;9.080;2023-06-24T00:08:17;98880.25;;;14.69;76.08
77574;BME280;66710;48.868;9.080;2023-06-24T00:10:45;98880.50;;;14.52;74.65
77574;BME280;66710;48.868;9.080;2023-06-24T00:13:12;98887.41;;;14.59;74.98
77574;BME280;66710;48.868;9.080;2023-06-24T00:15:37;98891.75;;;14.50;75.85
77574;BME280;66710;48.868;9.080;2023-06-24T00:18:10;98889.00;;;14.45;78.01
77574;BME280;66710;48.868;9.080;2023-06-24T00:20:36;98883.50;;;14.55;77.85
77574;BME280;66710;48.868;9.080;2023-06-24T00:23:01;98884.06;;;14.68;75.89
77574;BME280;66710;48.868;9.080;2023-06-24T00:25:27;98881.88;;;14.54;75.27
77574;BME280;66710;48.868;9.080;2023-06-24T00:27:53;98878.03;;;14.45;76.19
77574;BME280;66710;48.868;9.080;2023-06-24T00:30:18;98875.34;;;14.35;77.26
77574;BME280;66710;48.868;9.080;2023-06-24T00:32:43;98875.06;;;14.16;79.30
77574;BME280;66710;48.868;9.080;2023-06-24T00:35:09;98876.41;;;14.08;78.75
77574;BME280;66710;48.868;9.080;2023-06-24T00:37:37;98876.97;;;14.10;80.11
77574;BME280;66710;48.868;9.080;2023-06-24T00:40:04;98879.19;;;13.98;79.23
77574;BME280;66710;48.868;9.080;2023-06-24T00:42:30;98886.53;;;13.92;78.98
77574;BME280;66710;48.868;9.080;2023-06-24T00:44:55;98879.44;;;13.86;79.76
77574;BME280;66710;48.868;9.080;2023-06-24T00:47:21;98876.16;;;13.84;79.47
77574;BME280;66710;48.868;9.080;2023-06-24T00:49:47;98883.25;;;13.80;80.11
77574;BME280;66710;48.868;9.080;2023-06-24T00:52:12;98876.69;;;13.81;79.57
77574;BME280;66710;48.868;9.080;2023-06-24T00:54:44;98882.72;;;13.98;79.82
77574;BME280;66710;48.868;9.080;2023-06-24T00:57:10;98880.78;;;13.83;79.98
77574;BME280;66710;48.868;9.080;2023-06-24T00:59:36;98880.25;;;13.71;80.52
77574;BME280;66710;48.868;9.080;2023-06-24T01:02:03;98891.72;;;13.68;80.34
77574;BME280;66710;48.868;9.080;2023-06-24T01:04:30;98886.28;;;13.78;79.75
77574;BME280;66710;48.868;9.080;2023-06-24T01:06:56;98886.53;;;13.77;79.49
77574;BME280;66710;48.868;9.080;2023-06-24T01:09:22;98890.91;;;13.78;79.36
77574;BME280;66710;48.868;9.080;2023-06-24T01:11:48;98886.53;;;13.72;79.25
77574;BME280;66710;48.868;9.080;2023-06-24T01:14:14;98883.78;;;13.72;78.57
77574;BME280;66710;48.868;9.080;2023-06-24T01:16:44;98871.19;;;13.76;78.01
77574;BME280;66710;48.868;9.080;2023-06-24T01:19:44;98875.59;;;13.92;77.08
77574;BME280;66710;48.868;9.080;2023-06-24T01:31:34;98879.94;;;13.73;78.22
77574;BME280;66710;48.868;9.080;2023-06-24T01:34:12;98877.75;;;13.64;79.38
77574;BME280;66710;48.868;9.080;2023-06-24T01:36:43;98868.69;;;13.64;79.41
77574;BME280;66710;48.868;9.080;2023-06-24T01:39:10;98868.72;;;13.59;78.12
77574;BME280;66710;48.868;9.080;2023-06-24T01:41:47;98868.16;;;13.46;79.07
77574;BME280;66710;48.868;9.080;2023-06-24T01:44:15;98863.19;;;13.43;79.15
77574;BME280;66710;48.868;9.080;2023-06-24T01:46:44;98870.28;;;13.39;79.73
77574;BME280;66710;48.868;9.080;2023-06-24T01:49:13;98858.56;;;13.49;79.76
77574;BME280;66710;48.868;9.080;2023-06-24T01:51:41;98859.38;;;13.55;79.86
77574;BME280;66710;48.868;9.080;2023-06-24T01:54:15;98872.25;;;13.49;79.33
77574;BME280;66710;48.868;9.080;2023-06-24T01:56:45;98858.03;;;13.52;79.74
77574;BME280;66710;48.868;9.080;2023-06-24T01:59:14;98865.41;;;13.57;78.67
77574;BME280;66710;48.868;9.080;2023-06-24T02:01:43;98859.66;;;13.58;79.10
77574;BME280;66710;48.868;9.080;2023-06-24T02:04:10;98858.31;;;13.56;79.00
77574;BME280;66710;48.868;9.080;2023-06-24T02:06:38;98857.19;;;13.46;79.81
77574;BME280;66710;48.868;9.080;2023-06-24T02:09:05;98859.06;;;13.36;79.86
77574;BME280;66710;48.868;9.080;2023-06-24T02:11:33;98856.34;;;13.41;79.53
77574;BME280;66710;48.868;9.080;2023-06-24T02:14:01;98866.41;;;13.30;79.80
77574;BME280;66710;48.868;9.080;2023-06-24T02:16:27;98855.69;;;13.23;80.20
77574;BME280;66710;48.868;9.080;2023-06-24T02:18:55;98856.50;;;13.14;80.19
77574;BME280;66710;48.868;9.080;2023-06-24T02:21:23;98863.81;;;12.93;81.46
77574;BME280;66710;48.868;9.080;2023-06-24T02:23:49;98860.97;;;12.77;82.34
77574;BME280;66710;48.868;9.080;2023-06-24T02:26:16;98856.56;;;12.66;82.36
77574;BME280;66710;48.868;9.080;2023-06-24T02:28:44;98853.59;;;12.73;82.42
77574;BME280;66710;48.868;9.080;2023-06-24T02:31:10;98857.72;;;12.80;81.66
77574;BME280;66710;48.868;9.080;2023-06-24T02:33:37;98850.13;;;12.93;81.20
77574;BME280;66710;48.868;9.080;2023-06-24T02:36:03;98855.03;;;12.90;81.22
77574;BME280;66710;48.868;9.080;2023-06-24T02:38:28;98861.84;;;12.78;81.95
77574;BME280;66710;48.868;9.080;2023-06-24T02:40:54;98855.44;;;12.57;83.07
77574;BME280;66710;48.868;9.080;2023-06-24T02:43:19;98855.06;;;12.43;83.65
77574;BME280;66710;48.868;9.080;2023-06-24T02:45:47;98856.94;;;12.42;83.81
77574;BME280;66710;48.868;9.080;2023-06-24T02:48:13;98852.84;;;12.40;83.45
77574;BME280;66710;48.868;9.080;2023-06-24T02:50:39;98858.31;;;12.40;83.52
77574;BME280;66710;48.868;9.080;2023-06-24T02:53:10;98848.75;;;12.37;83.31
77574;BME280;66710;48.868;9.080;2023-06-24T02:55:36;98853.31;;;12.31;83.94
77574;BME280;66710;48.868;9.080;2023-06-24T02:58:03;98861.47;;;12.26;83.67
77574;BME280;66710;48.868;9.080;2023-06-24T03:00:30;98861.19;;;12.23;84.75
77574;BME280;66710;48.868;9.080;2023-06-24T03:03:00;98855.69;;;12.18;84.93
77574;BME280;66710;48.868;9.080;2023-06-24T03:05:25;98856.78;;;12.17;85.09
77574;BME280;66710;48.868;9.080;2023-06-24T03:07:51;98851.31;;;12.17;85.13
77574;BME280;66710;48.868;9.080;2023-06-24T03:10:17;98856.78;;;12.17;85.47
77574;BME280;66710;48.868;9.080;2023-06-24T03:12:42;98858.25;;;12.29;85.05
77574;BME280;66710;48.868;9.080;2023-06-24T03:15:08;98865.44;;;12.41;84.20
77574;BME280;66710;48.868;9.080;2023-06-24T03:17:34;98859.69;;;12.37;83.87
77574;BME280;66710;48.868;9.080;2023-06-24T03:20:00;98867.63;;;12.44;83.75
77574;BME280;66710;48.868;9.080;2023-06-24T03:22:25;98873.16;;;12.54;83.67
77574;BME280;66710;48.868;9.080;2023-06-24T03:24:50;98867.56;;;12.76;81.91
77574;BME280;66710;48.868;9.080;2023-06-24T03:27:18;98871.47;;;12.90;81.38
77574;BME280;66710;48.868;9.080;2023-06-24T03:29:44;98868.16;;;12.88;81.51
77574;BME280;66710;48.868;9.080;2023-06-24T03:32:09;98876.91;;;12.85;81.07
77574;BME280;66710;48.868;9.080;2023-06-24T03:34:34;98880.97;;;12.83;81.87
77574;BME280;66710;48.868;9.080;2023-06-24T03:37:00;98885.31;;;12.74;81.82
77574;BME280;66710;48.868;9.080;2023-06-24T03:39:25;98885.53;;;12.62;82.36
77574;BME280;66710;48.868;9.080;2023-06-24T03:41:51;98892.25;;;12.49;83.39
77574;BME280;66710;48.868;9.080;2023-06-24T03:44:16;98893.63;;;12.46;83.38
77574;BME280;66710;48.868;9.080;2023-06-24T03:46:41;98899.34;;;12.45;83.57
77574;BME280;66710;48.868;9.080;2023-06-24T03:49:07;98899.38;;;12.50;83.79
77574;BME280;66710;48.868;9.080;2023-06-24T03:51:32;98899.38;;;12.50;83.70
77574;BME280;66710;48.868;9.080;2023-06-24T03:53:58;98902.38;;;12.48;84.04
77574;BME280;66710;48.868;9.080;2023-06-24T03:56:23;98899.16;;;12.57;83.40
77574;BME280;66710;48.868;9.080;2023-06-24T03:58:48;98895.88;;;12.60;83.75
77574;BME280;66710;48.868;9.080;2023-06-24T04:01:14;98903.84;;;12.66;83.32
77574;BME280;66710;48.868;9.080;2023-06-24T04:03:39;98899.19;;;12.67;83.43
77574;BME280;66710;48.868;9.080;2023-06-24T04:06:04;98906.13;;;12.80;82.99
77574;BME280;66710;48.868;9.080;2023-06-24T04:08:30;98907.53;;;12.87;82.54
77574;BME280;66710;48.868;9.080;2023-06-24T04:10:56;98917.69;;;12.92;82.04
77574;BME280;66710;48.868;9.080;2023-06-24T04:13:21;98921.75;;;12.89;82.34
77574;BME280;66710;48.868;9.080;2023-06-24T04:15:47;98925.06;;;12.92;82.39
77574;BME280;66710;48.868;9.080;2023-06-24T04:18:12;98927.78;;;12.92;82.35
77574;BME280;66710;48.868;9.080;2023-06-24T04:20:38;98921.25;;;12.93;82.46
77574;BME280;66710;48.868;9.080;2023-06-24T04:23:03;98925.97;;;13.02;82.25
77574;BME280;66710;48.868;9.080;2023-06-24T04:25:29;98923.81;;;13.09;82.12
77574;BME280;66710;48.868;9.080;2023-06-24T04:27:55;98924.66;;;13.15;81.97
77574;BME280;66710;48.868;9.080;2023-06-24T04:30:20;98924.41;;;13.22;81.83
77574;BME280;66710;48.868;9.080;2023-06-24T04:32:45;98929.59;;;13.28;81.54
77574;BME280;66710;48.868;9.080;2023-06-24T04:35:11;98934.06;;;13.35;80.98
77574;BME280;66710;48.868;9.080;2023-06-24T04:37:36;98942.88;;;13.47;79.79
77574;BME280;66710;48.868;9.080;2023-06-24T04:40:02;98936.31;;;13.58;79.93
77574;BME280;66710;48.868;9.080;2023-06-24T04:42:27;98936.63;;;13.72;79.98
77574;BME280;66710;48.868;9.080;2023-06-24T04:44:53;98933.94;;;13.82;79.42
77574;BME280;66710;48.868;9.080;2023-06-24T04:47:18;98939.16;;;13.94;79.00
77574;BME280;66710;48.868;9.080;2023-06-24T04:49:44;98930.94;;;14.04;78.61
77574;BME280;66710;48.868;9.080;2023-06-24T04:52:11;98934.25;;;14.17;78.82
77574;BME280;66710;48.868;9.080;2023-06-24T04:54:37;98932.88;;;14.25;78.59
77574;BME280;66710;48.868;9.080;2023-06-24T04:57:05;98930.97;;;14.35;78.69
77574;BME280;66710;48.868;9.080;2023-06-24T04:59:30;98920.28;;;14.39;78.68
77574;BME280;66710;48.868;9.080;2023-06-24T05:01:56;98920.00;;;14.51;78.51
77574;BME280;66710;48.868;9.080;2023-06-24T05:04:21;98924.91;;;14.54;78.23
77574;BME280;66710;48.868;9.080;2023-06-24T05:06:47;98921.09;;;14.70;77.95
77574;BME280;66710;48.868;9.080;2023-06-24T05:09:12;98929.88;;;14.77;77.70
77574;BME280;66710;48.868;9.080;2023-06-24T05:11:40;98928.75;;;14.89;76.76
77574;BME280;66710;48.868;9.080;2023-06-24T05:14:05;98936.13;;;15.09;76.88
77574;BME280;66710;48.868;9.080;2023-06-24T05:16:31;98931.09;;;15.21;76.47
77574;BME280;66710;48.868;9.080;2023-06-24T05:18:56;98937.09;;;15.33;75.60
77574;BME280;66710;48.868;9.080;2023-06-24T05:21:21;98940.06;;;15.47;75.21
77574;BME280;66710;48.868;9.080;2023-06-24T05:23:47;98941.16;;;15.57;74.28
77574;BME280;66710;48.868;9.080;2023-06-24T05:26:13;98941.56;;;15.74;73.56
77574;BME280;66710;48.868;9.080;2023-06-24T05:28:39;98944.84;;;15.86;73.42
77574;BME280;66710;48.868;9.080;2023-06-24T05:31:05;98939.00;;;15.98;73.22
77574;BME280;66710;48.868;9.080;2023-06-24T05:33:30;98934.50;;;16.13;72.15
77574;BME280;66710;48.868;9.080;2023-06-24T05:35:55;98937.97;;;16.28;71.75
77574;BME280;66710;48.868;9.080;2023-06-24T05:38:21;98943.09;;;16.40;71.75
77574;BME280;66710;48.868;9.080;2023-06-24T05:40:46;98942.13;;;16.55;71.06
77574;BME280;66710;48.868;9.080;2023-06-24T05:43:11;98940.66;;;16.68;70.97
77574;BME280;66710;48.868;9.080;2023-06-24T05:45:37;98948.84;;;16.78;69.76
77574;BME280;66710;48.868;9.080;2023-06-24T05:48:03;98955.66;;;16.86;69.59
77574;BME280;66710;48.868;9.080;2023-06-24T05:50:28;98953.34;;;16.98;69.02
77574;BME280;66710;48.868;9.080;2023-06-24T05:52:53;98955.22;;;17.03;68.57
77574;BME280;66710;48.868;9.080;2023-06-24T05:55:19;98956.97;;;17.18;68.63
77574;BME280;66710;48.868;9.080;2023-06-24T05:57:44;98959.63;;;17.28;68.26
77574;BME280;66710;48.868;9.080;2023-06-24T06:00:10;98953.69;;;17.40;68.73
77574;BME280;66710;48.868;9.080;2023-06-24T06:02:36;98956.94;;;17.47;67.98
77574;BME280;66710;48.868;9.080;2023-06-24T06:05:02;98950.91;;;17.64;67.77
77574;BME280;66710;48.868;9.080;2023-06-24T06:07:28;98948.09;;;17.69;68.39
77574;BME280;66710;48.868;9.080;2023-06-24T06:09:53;98945.19;;;17.79;68.73
77574;BME280;66710;48.868;9.080;2023-06-24T06:12:18;98949.25;;;17.87;68.88
77574;BME280;66710;48.868;9.080;2023-06-24T06:14:44;98951.41;;;17.90;67.32
77574;BME280;66710;48.868;9.080;2023-06-24T06:17:09;98956.03;;;18.14;68.00
77574;BME280;66710;48.868;9.080;2023-06-24T06:19:35;98962.19;;;18.25;66.63
77574;BME280;66710;48.868;9.080;2023-06-24T06:22:00;98957.31;;;18.22;65.13
77574;BME280;66710;48.868;9.080;2023-06-24T06:24:25;98954.03;;;18.52;64.84
77574;BME280;66710;48.868;9.080;2023-06-24T06:26:51;98955.56;;;18.45;63.99
77574;BME280;66710;48.868;9.080;2023-06-24T06:29:16;98940.72;;;19.06;62.10
77574;BME280;66710;48.868;9.080;2023-06-24T06:31:42;98941.22;;;19.08;61.87
77574;BME280;66710;48.868;9.080;2023-06-24T06:34:07;98940.78;;;19.57;61.10
77574;BME280;66710;48.868;9.080;2023-06-24T06:36:33;98935.25;;;19.57;60.33
77574;BME280;66710;48.868;9.080;2023-06-24T06:38:59;98946.56;;;20.11;58.30
77574;BME280;66710;48.868;9.080;2023-06-24T06:41:24;98942.38;;;19.99;58.32
77574;BME280;66710;48.868;9.080;2023-06-24T06:43:51;98937.94;;;20.12;57.90
77574;BME280;66710;48.868;9.080;2023-06-24T06:46:16;98941.16;;;20.28;56.99
77574;BME280;66710;48.868;9.080;2023-06-24T06:48:42;98936.72;;;20.63;56.82
77574;BME280;66710;48.868;9.080;2023-06-24T06:51:07;98930.06;;;21.36;54.52
77574;BME280;66710;48.868;9.080;2023-06-24T06:53:33;98930.41;;;21.03;54.20
77574;BME280;66710;48.868;9.080;2023-06-24T06:55:58;98927.78;;;20.98;53.72
77574;BME280;66710;48.868;9.080;2023-06-24T06:58:24;98930.91;;;21.05;54.49
77574;BME280;66710;48.868;9.080;2023-06-24T07:00:49;98934.28;;;21.82;51.62
77574;BME280;66710;48.868;9.080;2023-06-24T07:03:15;98931.34;;;21.78;51.86
77574;BME280;66710;48.868;9.080;2023-06-24T07:05:41;98941.28;;;21.71;52.41
77574;BME280;66710;48.868;9.080;2023-06-24T07:08:06;98942.41;;;21.70;52.73
77574;BME280;66710;48.868;9.080;2023-06-24T07:10:31;98934.81;;;22.45;50.15
77574;BME280;66710;48.868;9.080;2023-06-24T07:12:57;98934.75;;;21.84;50.94
77574;BME280;66710;48.868;9.080;2023-06-24T07:15:25;98936.91;;;21.96;50.34
77574;BME280;66710;48.868;9.080;2023-06-24T07:17:50;98935.59;;;22.02;51.17
77574;BME280;66710;48.868;9.080;2023-06-24T07:20:15;98941.47;;;22.70;49.99
77574;BME280;66710;48.868;9.080;2023-06-24T07:22:41;98932.44;;;22.91;48.12
77574;BME280;66710;48.868;9.080;2023-06-24T07:25:06;98932.19;;;22.23;49.41
77574;BME280;66710;48.868;9.080;2023-06-24T07:27:32;98929.06;;;22.07;49.05
77574;BME280;66710;48.868;9.080;2023-06-24T07:29:57;98927.78;;;22.30;50.28
77574;BME280;66710;48.868;9.080;2023-06-24T07:32:22;98932.03;;;23.19;46.51
77574;BME280;66710;48.868;9.080;2023-06-24T07:34:48;98934.41;;;23.38;45.74
77574;BME280;66710;48.868;9.080;2023-06-24T07:37:13;98928.31;;;23.06;48.62
77574;BME280;66710;48.868;9.080;2023-06-24T07:39:38;98925.25;;;23.37;45.57
77574;BME280;66710;48.868;9.080;2023-06-24T07:42:04;98917.53;;;23.43;45.79
77574;BME280;66710;48.868;9.080;2023-06-24T07:44:29;98922.97;;;23.31;46.24
77574;BME280;66710;48.868;9.080;2023-06-24T07:46:55;98929.63;;;23.08;45.78
77574;BME280;66710;48.868;9.080;2023-06-24T07:49:20;98925.91;;;23.34;45.71
77574;BME280;66710;48.868;9.080;2023-06-24T07:51:45;98928.22;;;23.92;45.81
77574;BME280;66710;48.868;9.080;2023-06-24T07:54:11;98925.78;;;23.90;43.72
77574;BME280;66710;48.868;9.080;2023-06-24T07:56:36;98925.78;;;24.11;42.93
77574;BME280;66710;48.868;9.080;2023-06-24T07:59:02;98919.19;;;24.49;42.08
77574;BME280;66710;48.868;9.080;2023-06-24T08:01:28;98911.09;;;24.23;43.20
77574;BME280;66710;48.868;9.080;2023-06-24T08:03:53;98915.69;;;24.40;42.95
77574;BME280;66710;48.868;9.080;2023-06-24T08:06:18;98924.31;;;24.47;41.47
77574;BME280;66710;48.868;9.080;2023-06-24T08:08:44;98921.28;;;23.98;42.39
77574;BME280;66710;48.868;9.080;2023-06-24T08:11:11;98916.25;;;23.91;42.59
77574;BME280;66710;48.868;9.080;2023-06-24T08:13:36;98912.94;;;24.52;40.72
77574;BME280;66710;48.868;9.080;2023-06-24T08:16:02;98916.97;;;25.46;42.22
77574;BME280;66710;48.868;9.080;2023-06-24T08:18:27;98911.13;;;25.14;39.43
77574;BME280;66710;48.868;9.080;2023-06-24T08:20:53;98899.31;;;25.30;40.85
77574;BME280;66710;48.868;9.080;2023-06-24T08:23:18;98903.00;;;25.22;41.07
77574;BME280;66710;48.868;9.080;2023-06-24T08:25:44;98910.97;;;24.53;40.65
77574;BME280;66710;48.868;9.080;2023-06-24T08:28:10;98910.69;;;25.74;39.79
77574;BME280;66710;48.868;9.080;2023-06-24T08:30:35;98907.78;;;24.42;39.99
77574;BME280;66710;48.868;9.080;2023-06-24T08:33:01;98905.41;;;24.98;39.68
77574;BME280;66710;48.868;9.080;2023-06-24T08:35:26;98899.41;;;25.21;39.21
77574;BME280;66710;48.868;9.080;2023-06-24T08:37:52;98897.78;;;25.20;37.52
77574;BME280;66710;48.868;9.080;2023-06-24T08:40:17;98901.53;;;26.14;38.38
77574;BME280;66710;48.868;9.080;2023-06-24T08:42:43;98900.22;;;25.71;38.21
77574;BME280;66710;48.868;9.080;2023-06-24T08:45:09;98907.88;;;26.27;38.48
77574;BME280;66710;48.868;9.080;2023-06-24T08:47:35;98903.22;;;26.31;38.42
77574;BME280;66710;48.868;9.080;2023-06-24T08:50:12;98900.41;;;26.31;38.01
77574;BME280;66710;48.868;9.080;2023-06-24T08:52:50;98904.78;;;26.16;36.39
77574;BME280;66710;48.868;9.080;2023-06-24T08:55:16;98899.72;;;26.62;37.64
77574;BME280;66710;48.868;9.080;2023-06-24T08:57:42;98898.69;;;27.47;34.06
77574;BME280;66710;48.868;9.080;2023-06-24T09:00:08;98904.28;;;26.26;33.71
77574;BME280;66710;48.868;9.080;2023-06-24T09:02:39;98902.72;;;26.70;33.77
77574;BME280;66710;48.868;9.080;2023-06-24T09:05:06;98900.56;;;27.11;33.88
77574;BME280;66710;48.868;9.080;2023-06-24T09:07:31;98902.91;;;26.77;34.44
77574;BME280;66710;48.868;9.080;2023-06-24T09:09:57;98896.16;;;26.94;34.29
77574;BME280;66710;48.868;9.080;2023-06-24T09:12:24;98897.97;;;26.86;36.02
77574;BME280;66710;48.868;9.080;2023-06-24T09:14:50;98896.44;;;27.20;35.40
77574;BME280;66710;48.868;9.080;2023-06-24T09:17:16;98897.88;;;27.46;33.63
77574;BME280;66710;48.868;9.080;2023-06-24T09:19:42;98890.22;;;26.95;33.96
77574;BME280;66710;48.868;9.080;2023-06-24T09:22:08;98882.09;;;27.73;33.94
77574;BME280;66710;48.868;9.080;2023-06-24T09:24:41;98880.19;;;27.77;32.26
77574;BME280;66710;48.868;9.080;2023-06-24T09:27:06;98880.50;;;27.56;31.39
77574;BME280;66710;48.868;9.080;2023-06-24T09:29:33;98880.38;;;27.33;31.76
77574;BME280;66710;48.868;9.080;2023-06-24T09:31:59;98878.31;;;28.40;30.68
77574;BME280;66710;48.868;9.080;2023-06-24T09:34:26;98868.94;;;27.58;33.29
77574;BME280;66710;48.868;9.080;2023-06-24T09:36:56;98867.78;;;27.59;32.47
77574;BME280;66710;48.868;9.080;2023-06-24T09:39:22;98867.00;;;27.42;31.66
77574;BME280;66710;48.868;9.080;2023-06-24T09:41:53;98864.19;;;27.11;33.54
77574;BME280;66710;48.868;9.080;2023-06-24T09:44:19;98866.88;;;27.23;32.29
77574;BME280;66710;48.868;9.080;2023-06-24T09:46:45;98852.31;;;27.65;31.95
77574;BME280;66710;48.868;9.080;2023-06-24T09:49:10;98855.09;;;28.01;31.83
77574;BME280;66710;48.868;9.080;2023-06-24T09:51:40;98852.72;;;27.83;32.50
77574;BME280;66710;48.868;9.080;2023-06-24T09:54:08;98858.41;;;27.19;33.55
77574;BME280;66710;48.868;9.080;2023-06-24T09:56:39;98849.84;;;27.28;34.60
77574;BME280;66710;48.868;9.080;2023-06-24T09:59:06;98852.97;;;27.58;32.85
77574;BME280;66710;48.868;9.080;2023-06-24T10:01:32;98846.25;;;28.18;32.70
77574;BME280;66710;48.868;9.080;2023-06-24T10:04:01;98850.31;;;29.09;32.17
77574;BME280;66710;48.868;9.080;2023-06-24T10:06:28;98850.09;;;28.29;32.25
77574;BME280;66710;48.868;9.080;2023-06-24T10:08:53;98849.56;;;28.24;31.88
77574;BME280;66710;48.868;9.080;2023-06-24T10:11:19;98838.41;;;28.08;31.81
77574;BME280;66710;48.868;9.080;2023-06-24T10:13:44;98842.69;;;28.41;30.19
77574;BME280;66710;48.868;9.080;2023-06-24T10:16:10;98840.59;;;27.59;31.04
77574;BME280;66710;48.868;9.080;2023-06-24T10:18:37;98836.34;;;27.66;33.70
77574;BME280;66710;48.868;9.080;2023-06-24T10:21:07;98837.19;;;28.05;32.28
77574;BME280;66710;48.868;9.080;2023-06-24T10:23:33;98834.41;;;27.89;31.01
77574;BME280;66710;48.868;9.080;2023-06-24T10:25:59;98829.31;;;28.34;29.90
77574;BME280;66710;48.868;9.080;2023-06-24T10:28:24;98828.38;;;27.16;33.44
77574;BME280;66710;48.868;9.080;2023-06-24T10:30:55;98823.84;;;27.12;32.16
77574;BME280;66710;48.868;9.080;2023-06-24T10:33:22;98822.63;;;26.77;33.21
77574;BME280;66710;48.868;9.080;2023-06-24T10:35:48;98818.41;;;27.70;29.01
77574;BME280;66710;48.868;9.080;2023-06-24T10:38:13;98812.44;;;27.52;30.14
77574;BME280;66710;48.868;9.080;2023-06-24T10:40:41;98814.78;;;26.99;30.81
77574;BME280;66710;48.868;9.080;2023-06-24T10:43:26;98818.16;;;27.40;30.89
77574;BME280;66710;48.868;9.080;2023-06-24T10:45:55;98806.69;;;27.84;29.92
77574;BME280;66710;48.868;9.080;2023-06-24T10:48:22;98805.13;;;28.03;30.38
77574;BME280;66710;48.868;9.080;2023-06-24T10:50:48;98803.03;;;27.80;30.58
77574;BME280;66710;48.868;9.080;2023-06-24T10:53:16;98807.09;;;28.02;32.50
77574;BME280;66710;48.868;9.080;2023-06-24T10:55:44;98788.25;;;27.64;29.97
77574;BME280;66710;48.868;9.080;2023-06-24T10:58:10;98796.00;;;27.51;31.22
77574;BME280;66710;48.868;9.080;2023-06-24T11:00:38;98799.13;;;27.30;29.72
77574;BME280;66710;48.868;9.080;2023-06-24T11:03:09;98795.53;;;28.04;29.94
77574;BME280;66710;48.868;9.080;2023-06-24T11:05:38;98786.34;;;28.49;30.82
77574;BME280;66710;48.868;9.080;2023-06-24T11:08:05;98787.44;;;28.64;29.31
77574;BME280;66710;48.868;9.080;2023-06-24T11:10:30;98777.91;;;28.69;27.94
77574;BME280;66710;48.868;9.080;2023-06-24T11:12:56;98789.75;;;29.62;28.09
77574;BME280;66710;48.868;9.080;2023-06-24T11:15:24;98784.94;;;28.16;28.64
77574;BME280;66710;48.868;9.080;2023-06-24T11:17:51;98782.69;;;28.45;27.03
77574;BME280;66710;48.868;9.080;2023-06-24T11:20:17;98777.41;;;29.13;27.36
77574;BME280;66710;48.868;9.080;2023-06-24T11:22:43;98779.88;;;29.45;28.15
77574;BME280;66710;48.868;9.080;2023-06-24T11:25:19;98771.94;;;29.20;25.58
77574;BME280;66710;48.868;9.080;2023-06-24T11:27:46;98768.06;;;28.79;26.64
77574;BME280;66710;48.868;9.080;2023-06-24T11:30:12;98766.97;;;29.13;27.25
77574;BME280;66710;48.868;9.080;2023-06-24T11:32:39;98768.56;;;28.84;28.07
77574;BME280;66710;48.868;9.080;2023-06-24T11:35:07;98755.00;;;28.21;27.07
77574;BME280;66710;48.868;9.080;2023-06-24T11:37:33;98754.34;;;28.27;26.49
77574;BME280;66710;48.868;9.080;2023-06-24T11:40:06;98760.88;;;27.92;26.74
77574;BME280;66710;48.868;9.080;2023-06-24T11:42:35;98753.66;;;29.07;28.44
77574;BME280;66710;48.868;9.080;2023-06-24T11:45:02;98749.91;;;28.26;26.62
77574;BME280;66710;48.868;9.080;2023-06-24T11:47:34;98742.56;;;28.64;26.92
77574;BME280;66710;48.868;9.080;2023-06-24T11:50:00;98743.75;;;28.17;27.04
77574;BME280;66710;48.868;9.080;2023-06-24T11:55:21;98739.31;;;29.12;24.96
77574;BME280;66710;48.868;9.080;2023-06-24T12:00:28;98738.28;;;29.54;25.64
77574;BME280;66710;48.868;9.080;2023-06-24T12:02:56;98734.88;;;28.84;28.03
77574;BME280;66710;48.868;9.080;2023-06-24T12:05:29;98737.75;;;30.47;25.31
77574;BME280;66710;48.868;9.080;2023-06-24T12:07:57;98733.69;;;30.44;26.54
77574;BME280;66710;48.868;9.080;2023-06-24T12:10:23;98729.69;;;30.04;25.17
77574;BME280;66710;48.868;9.080;2023-06-24T12:12:48;98724.22;;;29.81;26.50
77574;BME280;66710;48.868;9.080;2023-06-24T12:15:13;98731.03;;;29.19;27.21
77574;BME280;66710;48.868;9.080;2023-06-24T12:17:39;98716.03;;;30.06;26.62
77574;BME280;66710;48.868;9.080;2023-06-24T12:20:05;98717.53;;;29.62;25.47
77574;BME280;66710;48.868;9.080;2023-06-24T12:22:30;98708.81;;;29.71;24.84
77574;BME280;66710;48.868;9.080;2023-06-24T12:24:56;98708.34;;;29.65;25.04
77574;BME280;66710;48.868;9.080;2023-06-24T12:27:21;98700.28;;;30.39;26.56
77574;BME280;66710;48.868;9.080;2023-06-24T12:29:46;98694.25;;;30.37;25.00
77574;BME280;66710;48.868;9.080;2023-06-24T12:32:12;98703.25;;;30.53;24.70
77574;BME280;66710;48.868;9.080;2023-06-24T12:34:37;98691.53;;;30.48;23.08
77574;BME280;66710;48.868;9.080;2023-06-24T12:37:03;98684.72;;;31.08;21.44
77574;BME280;66710;48.868;9.080;2023-06-24T12:39:29;98685.72;;;29.51;23.33
77574;BME280;66710;48.868;9.080;2023-06-24T12:41:55;98687.94;;;29.38;24.03
77574;BME280;66710;48.868;9.080;2023-06-24T12:44:20;98684.91;;;28.93;24.10
77574;BME280;66710;48.868;9.080;2023-06-24T12:46:45;98683.13;;;30.10;24.26
77574;BME280;66710;48.868;9.080;2023-06-24T12:49:11;98676.97;;;30.87;25.43
77574;BME280;66710;48.868;9.080;2023-06-24T12:51:36;98679.09;;;30.04;24.84
77574;BME280;66710;48.868;9.080;2023-06-24T12:54:02;98676.38;;;30.15;26.25
77574;BME280;66710;48.868;9.080;2023-06-24T12:56:27;98673.22;;;29.82;26.00
77574;BME280;66710;48.868;9.080;2023-06-24T12:58:52;98667.06;;;30.52;27.00
77574;BME280;66710;48.868;9.080;2023-06-24T13:01:18;98664.28;;;30.55;25.71
77574;BME280;66710;48.868;9.080;2023-06-24T13:03:43;98663.16;;;30.71;24.14
77574;BME280;66710;48.868;9.080;2023-06-24T13:06:08;98660.22;;;31.08;23.23
77574;BME280;66710;48.868;9.080;2023-06-24T13:08:34;98661.44;;;30.11;25.77
77574;BME280;66710;48.868;9.080;2023-06-24T13:10:59;98651.81;;;30.56;24.12